sensor_id;sensor_type;location;lat;lon;timestamp;pressure;altitude;pressure_sealevel;temperature;humidity
58243;BME280;50118;53.232;8.252;2023-02-21T00:00:53;101375.06;;;7.87;100.00
58243;BME280;50118;53.232;8.252;2023-02-21T00:03:37;101380.13;;;7.90;100.00
58243;BME280;50118;53.232;8.252;2023-02-21T00:06:21;101383.13;;;7.85;100.00
58243;BME280;50118;53.232;8.252;2023-02-21T00:09:05;101372.06;;;7.92;100.00
58243;BME280;50118;53.232;8.252;2023-02-21T00:11:49;101379.50;;;7.86;100.00
58243;BME280;50118;53.232;8.252;2023-02-21T00:14:36;101376.97;;;7.85;100.00
58243;BME280;50118;53.232;8.252;2023-02-21T00:17:21;101383.53;;;7.92;100.00
58243;BME280;50118;53.232;8.252;2023-02-21T00:20:05;101373.97;;;7.90;100.00
58243;BME280;50118;53.232;8.252;2023-02-21T00:22:49;101389.88;;;7.90;100.00
58243;BME280;50118;53.232;8.252;2023-02-21T00:25:33;101376.41;;;7.93;100.00
58243;BME280;50118;53.232;8.252;2023-02-21T00:28:17;101396.06;;;7.90;100.00
58243;BME280;50118;53.232;8.252;2023-02-21T00:31:01;101396.91;;;7.91;100.00
58243;BME280;50118;53.232;8.252;2023-02-21T00:33:45;101386.06;;;7.94;100.00
58243;BME280;50118;53.232;8.252;2023-02-21T00:36:29;101396.78;;;7.92;100.00
58243;BME280;50118;53.232;8.252;2023-02-21T00:39:13;101395.19;;;7.90;100.00
58243;BME280;50118;53.232;8.252;2023-02-21T00:41:57;101379.06;;;7.93;100.00
58243;BME280;50118;53.232;8.252;2023-02-21T00:44:40;101386.06;;;7.94;100.00
58243;BME280;50118;53.232;8.252;2023-02-21T00:47:25;101383.75;;;7.89;100.00
58243;BME280;50118;53.232;8.252;2023-02-21T00:50:09;101384.78;;;7.86;100.00
58243;BME280;50118;53.232;8.252;2023-02-21T00:52:53;101387.22;;;7.90;100.00
58243;BME280;50118;53.232;8.252;2023-02-21T00:55:37;101399.22;;;7.95;100.00
58243;BME280;50118;53.232;8.252;2023-02-21T00:58:21;101398.19;;;7.85;100.00
58243;BME280;50118;53.232;8.252;2023-02-21T01:01:05;101396.59;;;7.82;100.00
58243;BME280;50118;53.232;8.252;2023-02-21T01:03:49;101397.69;;;7.80;100.00
58243;BME280;50118;53.232;8.252;2023-02-21T01:06:33;101396.72;;;7.81;100.00
58243;BME280;50118;53.232;8.252;2023-02-21T01:09:18;101398.41;;;7.82;100.00
58243;BME280;50118;53.232;8.252;2023-02-21T01:12:02;101403.72;;;7.82;100.00
58243;BME280;50118;53.232;8.252;2023-02-21T01:14:46;101400.34;;;7.80;100.00
58243;BME280;50118;53.232;8.252;2023-02-21T01:17:30;101411.69;;;7.82;100.00
58243;BME280;50118;53.232;8.252;2023-02-21T01:20:14;101417.09;;;7.80;100.00
58243;BME280;50118;53.232;8.252;2023-02-21T01:22:58;101415.84;;;7.73;100.00
58243;BME280;50118;53.232;8.252;2023-02-21T01:25:42;101413.28;;;7.72;100.00
58243;BME280;50118;53.232;8.252;2023-02-21T01:28:26;101411.47;;;7.72;100.00
58243;BME280;50118;53.232;8.252;2023-02-21T01:31:10;101421.34;;;7.70;100.00
58243;BME280;50118;53.232;8.252;2023-02-21T01:33:54;101417.72;;;7.71;100.00
58243;BME280;50118;53.232;8.252;2023-02-21T01:36:40;101424.97;;;7.69;100.00
58243;BME280;50118;53.232;8.252;2023-02-21T01:39:24;101424.75;;;7.72;100.00
58243;BME280;50118;53.232;8.252;2023-02-21T01:42:09;101429.31;;;7.70;100.00
58243;BME280;50118;53.232;8.252;2023-02-21T01:47:59;101424.75;;;7.72;100.00
58243;BME280;50118;53.232;8.252;2023-02-21T01:50:43;101423.19;;;7.70;100.00
58243;BME280;50118;53.232;8.252;2023-02-21T01:53:27;101417.97;;;7.68;100.00
58243;BME280;50118;53.232;8.252;2023-02-21T01:56:12;101403.53;;;7.72;100.00
58243;BME280;50118;53.232;8.252;2023-02-21T01:58:58;101408.72;;;7.74;100.00
58243;BME280;50118;53.232;8.252;2023-02-21T02:05:00;101401.59;;;7.74;100.00
58243;BME280;50118;53.232;8.252;2023-02-21T02:07:45;101396.50;;;7.71;100.00
58243;BME280;50118;53.232;8.252;2023-02-21T02:10:29;101398.22;;;7.72;100.00
58243;BME280;50118;53.232;8.252;2023-02-21T02:13:34;101406.91;;;7.74;100.00
58243;BME280;50118;53.232;8.252;2023-02-21T02:27:28;101405.66;;;7.67;100.00
58243;BME280;50118;53.232;8.252;2023-02-21T02:36:29;101410.53;;;7.73;100.00
58243;BME280;50118;53.232;8.252;2023-02-21T02:39:01;101417.97;;;7.68;100.00
58243;BME280;50118;53.232;8.252;2023-02-21T02:44:20;101424.97;;;7.69;100.00
58243;BME280;50118;53.232;8.252;2023-02-21T02:46:49;101429.31;;;7.70;100.00
58243;BME280;50118;53.232;8.252;2023-02-21T02:49:21;101425.56;;;7.73;100.00
58243;BME280;50118;53.232;8.252;2023-02-21T02:51:48;101425.38;;;7.76;100.00
58243;BME280;50118;53.232;8.252;2023-02-21T02:54:14;101433.63;;;7.71;100.00
58243;BME280;50118;53.232;8.252;2023-02-21T02:56:39;101437.28;;;7.70;100.00
58243;BME280;50118;53.232;8.252;2023-02-21T02:59:12;101431.97;;;7.70;100.00
58243;BME280;50118;53.232;8.252;2023-02-21T03:09:26;101440.44;;;7.75;100.00
58243;BME280;50118;53.232;8.252;2023-02-21T03:12:00;101442.47;;;7.72;100.00
58243;BME280;50118;53.232;8.252;2023-02-21T03:14:34;101431.75;;;7.73;100.00
58243;BME280;50118;53.232;8.252;2023-02-21T03:17:05;101441.84;;;7.68;100.00
58243;BME280;50118;53.232;8.252;2023-02-21T03:19:39;101445.22;;;7.70;100.00
58243;BME280;50118;53.232;8.252;2023-02-21T03:22:17;101441.84;;;7.68;100.00
58243;BME280;50118;53.232;8.252;2023-02-21T03:24:45;101451.88;;;7.76;100.00
58243;BME280;50118;53.232;8.252;2023-02-21T03:27:13;101448.81;;;7.69;100.00
58243;BME280;50118;53.232;8.252;2023-02-21T03:29:40;101443.50;;;7.69;100.00
58243;BME280;50118;53.232;8.252;2023-02-21T03:32:14;101446.78;;;7.73;100.00
58243;BME280;50118;53.232;8.252;2023-02-21T03:34:42;101456.78;;;7.69;100.00
58243;BME280;50118;53.232;8.252;2023-02-21T03:37:18;101453.41;;;7.67;100.00
58243;BME280;50118;53.232;8.252;2023-02-21T03:39:45;101447.34;;;7.65;100.00
58243;BME280;50118;53.232;8.252;2023-02-21T03:42:11;101453.41;;;7.67;100.00
58243;BME280;50118;53.232;8.252;2023-02-21T03:44:36;101464.22;;;7.64;100.00
58243;BME280;50118;53.232;8.252;2023-02-21T03:47:02;101462.44;;;7.64;100.00
58243;BME280;50118;53.232;8.252;2023-02-21T03:49:27;101454.47;;;7.64;100.00
58243;BME280;50118;53.232;8.252;2023-02-21T03:51:52;101452.13;;;7.60;100.00
58243;BME280;50118;53.232;8.252;2023-02-21T03:54:18;101453.09;;;7.59;100.00
58243;BME280;50118;53.232;8.252;2023-02-21T03:56:43;101462.06;;;7.69;100.00
58243;BME280;50118;53.232;8.252;2023-02-21T03:59:09;101449.28;;;7.63;100.00
58243;BME280;50118;53.232;8.252;2023-02-21T04:01:34;101458.19;;;7.62;100.00
58243;BME280;50118;53.232;8.252;2023-02-21T04:04:00;101449.28;;;7.63;100.00
58243;BME280;50118;53.232;8.252;2023-02-21T04:06:25;101455.31;;;7.65;100.00
58243;BME280;50118;53.232;8.252;2023-02-21T04:08:51;101448.31;;;7.64;100.00
58243;BME280;50118;53.232;8.252;2023-02-21T04:11:18;101445.97;;;7.59;100.00
58243;BME280;50118;53.232;8.252;2023-02-21T04:13:44;101444.72;;;7.65;100.00
58243;BME280;50118;53.232;8.252;2023-02-21T04:16:10;101445.66;;;7.64;100.00
58243;BME280;50118;53.232;8.252;2023-02-21T04:18:35;101454.56;;;7.63;100.00
58243;BME280;50118;53.232;8.252;2023-02-21T04:21:01;101448.31;;;7.64;100.00
58243;BME280;50118;53.232;8.252;2023-02-21T04:23:26;101446.63;;;7.63;100.00
58243;BME280;50118;53.232;8.252;2023-02-21T04:25:52;101450.63;;;7.56;100.00
58243;BME280;50118;53.232;8.252;2023-02-21T04:28:17;101448.50;;;7.61;100.00
58243;BME280;50118;53.232;8.252;2023-02-21T04:30:43;101446.84;;;7.60;100.00
58243;BME280;50118;53.232;8.252;2023-02-21T04:33:08;101445.34;;;7.56;100.00
58243;BME280;50118;53.232;8.252;2023-02-21T04:35:34;101449.38;;;7.61;100.00
58243;BME280;50118;53.232;8.252;2023-02-21T04:37:59;101450.31;;;7.60;100.00
58243;BME280;50118;53.232;8.252;2023-02-21T04:40:25;101448.50;;;7.61;100.00
58243;BME280;50118;53.232;8.252;2023-02-21T04:42:50;101436.22;;;7.60;100.00
58243;BME280;50118;53.232;8.252;2023-02-21T04:45:15;101444.91;;;7.62;100.00
58243;BME280;50118;53.232;8.252;2023-02-21T04:47:41;101445.97;;;7.59;100.00
58243;BME280;50118;53.232;8.252;2023-02-21T04:50:06;101436.22;;;7.60;100.00
58243;BME280;50118;53.232;8.252;2023-02-21T04:52:32;101436.44;;;7.57;100.00
58243;BME280;50118;53.232;8.252;2023-02-21T04:54:57;101437.50;;;7.54;100.00
58243;BME280;50118;53.232;8.252;2023-02-21T04:57:23;101432.38;;;7.64;100.00
58243;BME280;50118;53.232;8.252;2023-02-21T04:59:55;101441.00;;;7.55;100.00
58243;BME280;50118;53.232;8.252;2023-02-21T05:02:21;101434.97;;;7.53;100.00
58243;BME280;50118;53.232;8.252;2023-02-21T05:04:46;101433.06;;;7.55;100.00
58243;BME280;50118;53.232;8.252;2023-02-21T05:07:12;101438.34;;;7.55;100.00
58243;BME280;50118;53.232;8.252;2023-02-21T05:09:37;101436.44;;;7.57;100.00
58243;BME280;50118;53.232;8.252;2023-02-21T05:12:02;101430.19;;;7.58;100.00
58243;BME280;50118;53.232;8.252;2023-02-21T05:14:36;101434.31;;;7.62;100.00
58243;BME280;50118;53.232;8.252;2023-02-21T05:17:02;101442.69;;;7.56;100.00
58243;BME280;50118;53.232;8.252;2023-02-21T05:19:27;101432.84;;;7.58;100.00
58243;BME280;50118;53.232;8.252;2023-02-21T05:21:58;101434.97;;;7.53;100.00
58243;BME280;50118;53.232;8.252;2023-02-21T05:24:25;101430.63;;;7.52;100.00
58243;BME280;50118;53.232;8.252;2023-02-21T05:26:51;101438.56;;;7.52;100.00
58243;BME280;50118;53.232;8.252;2023-02-21T05:29:17;101435.91;;;7.52;100.00
58243;BME280;50118;53.232;8.252;2023-02-21T05:31:43;101441.22;;;7.52;100.00
58243;BME280;50118;53.232;8.252;2023-02-21T05:34:09;101439.41;;;7.52;100.00
58243;BME280;50118;53.232;8.252;2023-02-21T05:36:34;101447.25;;;7.54;100.00
58243;BME280;50118;53.232;8.252;2023-02-21T05:39:00;101449.28;;;7.50;100.00
58243;BME280;50118;53.232;8.252;2023-02-21T05:41:25;101443.25;;;7.48;100.00
58243;BME280;50118;53.232;8.252;2023-02-21T05:43:51;101446.53;;;7.52;100.00
58243;BME280;50118;53.232;8.252;2023-02-21T05:46:26;101451.81;;;7.52;100.00
58243;BME280;50118;53.232;8.252;2023-02-21T05:48:53;101456.03;;;7.54;100.00
58243;BME280;50118;53.232;8.252;2023-02-21T05:51:19;101458.59;;;7.56;100.00
58243;BME280;50118;53.232;8.252;2023-02-21T05:53:45;101457.13;;;7.52;100.00
58243;BME280;50118;53.232;8.252;2023-02-21T05:56:11;101448.44;;;7.50;100.00
58243;BME280;50118;53.232;8.252;2023-02-21T05:58:36;101444.09;;;7.48;100.00
58243;BME280;50118;53.232;8.252;2023-02-21T06:01:03;101446.84;;;7.47;100.00
58243;BME280;50118;53.232;8.252;2023-02-21T06:03:29;101440.81;;;7.45;100.00
58243;BME280;50118;53.232;8.252;2023-02-21T06:05:54;101442.50;;;7.46;100.00
58243;BME280;50118;53.232;8.252;2023-02-21T06:08:20;101445.69;;;7.51;100.00
58243;BME280;50118;53.232;8.252;2023-02-21T06:10:45;101445.16;;;7.46;100.00
58243;BME280;50118;53.232;8.252;2023-02-21T06:13:11;101445.16;;;7.46;100.00
58243;BME280;50118;53.232;8.252;2023-02-21T06:15:36;101446.00;;;7.46;100.00
58243;BME280;50118;53.232;8.252;2023-02-21T06:18:02;101448.66;;;7.46;100.00
58243;BME280;50118;53.232;8.252;2023-02-21T06:20:27;101453.13;;;7.46;100.00
58243;BME280;50118;53.232;8.252;2023-02-21T06:22:53;101451.50;;;7.43;100.00
58243;BME280;50118;53.232;8.252;2023-02-21T06:25:19;101451.31;;;7.46;100.00
58243;BME280;50118;53.232;8.252;2023-02-21T06:27:44;101453.94;;;7.46;100.00
58243;BME280;50118;53.232;8.252;2023-02-21T06:30:10;101456.59;;;7.46;100.00
58243;BME280;50118;53.232;8.252;2023-02-21T06:32:36;101459.78;;;7.52;100.00
58243;BME280;50118;53.232;8.252;2023-02-21T06:35:02;101455.53;;;7.49;100.00
58243;BME280;50118;53.232;8.252;2023-02-21T06:37:28;101459.25;;;7.46;100.00
58243;BME280;50118;53.232;8.252;2023-02-21T06:39:53;101464.03;;;7.41;100.00
58243;BME280;50118;53.232;8.252;2023-02-21T06:42:20;101457.03;;;7.40;100.00
58243;BME280;50118;53.232;8.252;2023-02-21T06:44:46;101464.03;;;7.41;100.00
58243;BME280;50118;53.232;8.252;2023-02-21T06:47:12;101470.78;;;7.45;100.00
58243;BME280;50118;53.232;8.252;2023-02-21T06:49:38;101469.13;;;7.44;100.00
58243;BME280;50118;53.232;8.252;2023-02-21T06:52:04;101469.13;;;7.44;100.00
58243;BME280;50118;53.232;8.252;2023-02-21T06:54:30;101475.56;;;7.40;100.00
58243;BME280;50118;53.232;8.252;2023-02-21T06:56:56;101476.53;;;7.39;100.00
58243;BME280;50118;53.232;8.252;2023-02-21T06:59:22;101479.31;;;7.38;100.00
58243;BME280;50118;53.232;8.252;2023-02-21T07:01:47;101483.00;;;7.35;100.00
58243;BME280;50118;53.232;8.252;2023-02-21T07:04:13;101483.75;;;7.37;100.00
58243;BME280;50118;53.232;8.252;2023-02-21T07:06:38;101484.50;;;7.39;100.00
58243;BME280;50118;53.232;8.252;2023-02-21T07:09:08;101484.41;;;7.41;100.00
58243;BME280;50118;53.232;8.252;2023-02-21T07:11:34;101482.59;;;7.41;100.00
58243;BME280;50118;53.232;8.252;2023-02-21T07:13:59;101483.63;;;7.39;100.00
58243;BME280;50118;53.232;8.252;2023-02-21T07:16:26;101490.44;;;7.43;100.00
58243;BME280;50118;53.232;8.252;2023-02-21T07:18:51;101498.59;;;7.40;100.00
58243;BME280;50118;53.232;8.252;2023-02-21T07:21:18;101496.03;;;7.38;100.00
58243;BME280;50118;53.232;8.252;2023-02-21T07:23:45;101489.59;;;7.42;100.00
58243;BME280;50118;53.232;8.252;2023-02-21T07:26:11;101494.91;;;7.42;100.00
58243;BME280;50118;53.232;8.252;2023-02-21T07:28:37;101489.06;;;7.37;100.00
58243;BME280;50118;53.232;8.252;2023-02-21T07:31:03;101497.41;;;7.44;100.00
58243;BME280;50118;53.232;8.252;2023-02-21T07:33:28;101499.22;;;7.43;100.00
58243;BME280;50118;53.232;8.252;2023-02-21T07:35:54;101492.44;;;7.39;100.00
58243;BME280;50118;53.232;8.252;2023-02-21T07:38:21;101500.94;;;7.44;100.00
58243;BME280;50118;53.232;8.252;2023-02-21T07:40:48;101499.44;;;7.40;100.00
58243;BME280;50118;53.232;8.252;2023-02-21T07:43:14;101501.97;;;7.42;100.00
58243;BME280;50118;53.232;8.252;2023-02-21T07:45:39;101501.88;;;7.43;100.00
58243;BME280;50118;53.232;8.252;2023-02-21T07:48:05;101511.34;;;7.47;100.00
58243;BME280;50118;53.232;8.252;2023-02-21T07:50:30;101507.06;;;7.45;100.00
58243;BME280;50118;53.232;8.252;2023-02-21T07:52:58;101511.75;;;7.41;100.00
58243;BME280;50118;53.232;8.252;2023-02-21T07:55:24;101516.41;;;7.51;100.00
58243;BME280;50118;53.232;8.252;2023-02-21T07:57:50;101520.75;;;7.52;100.00
58243;BME280;50118;53.232;8.252;2023-02-21T08:00:16;101521.50;;;7.54;100.00
58243;BME280;50118;53.232;8.252;2023-02-21T08:02:46;101529.88;;;7.47;100.00
58243;BME280;50118;53.232;8.252;2023-02-21T08:05:14;101527.00;;;7.51;100.00
58243;BME280;50118;53.232;8.252;2023-02-21T08:07:39;101528.91;;;7.48;100.00
58243;BME280;50118;53.232;8.252;2023-02-21T08:10:05;101541.22;;;7.50;100.00
58243;BME280;50118;53.232;8.252;2023-02-21T08:12:30;101542.69;;;7.54;100.00
58243;BME280;50118;53.232;8.252;2023-02-21T08:14:56;101540.78;;;7.56;100.00
58243;BME280;50118;53.232;8.252;2023-02-21T08:17:21;101532.09;;;7.54;100.00
58243;BME280;50118;53.232;8.252;2023-02-21T08:19:47;101543.53;;;7.54;100.00
58243;BME280;50118;53.232;8.252;2023-02-21T08:22:12;101544.50;;;7.66;100.00
58243;BME280;50118;53.232;8.252;2023-02-21T08:24:40;101545.69;;;7.62;100.00
58243;BME280;50118;53.232;8.252;2023-02-21T08:27:06;101553.72;;;7.60;100.00
58243;BME280;50118;53.232;8.252;2023-02-21T08:29:32;101560.09;;;7.71;100.00
58243;BME280;50118;53.232;8.252;2023-02-21T08:31:57;101561.16;;;7.68;100.00
58243;BME280;50118;53.232;8.252;2023-02-21T08:34:22;101561.38;;;7.65;100.00
58243;BME280;50118;53.232;8.252;2023-02-21T08:36:49;101560.19;;;7.69;100.00
58243;BME280;50118;53.232;8.252;2023-02-21T08:39:14;101565.59;;;7.67;100.00
58243;BME280;50118;53.232;8.252;2023-02-21T08:41:42;101562.13;;;7.67;100.00
58243;BME280;50118;53.232;8.252;2023-02-21T08:44:10;101569.94;;;7.81;100.00
58243;BME280;50118;53.232;8.252;2023-02-21T08:46:36;101566.03;;;7.74;100.00
58243;BME280;50118;53.232;8.252;2023-02-21T08:49:03;101564.03;;;7.65;100.00
58243;BME280;50118;53.232;8.252;2023-02-21T08:51:30;101564.13;;;7.76;100.00
58243;BME280;50118;53.232;8.252;2023-02-21T08:53:56;101566.91;;;7.75;100.00
58243;BME280;50118;53.232;8.252;2023-02-21T08:56:23;101565.41;;;7.83;100.00
58243;BME280;50118;53.232;8.252;2023-02-21T08:58:49;101563.50;;;7.85;100.00
58243;BME280;50118;53.232;8.252;2023-02-21T09:01:14;101565.41;;;7.83;100.00
58243;BME280;50118;53.232;8.252;2023-02-21T09:03:42;101567.09;;;7.84;100.00
58243;BME280;50118;53.232;8.252;2023-02-21T09:06:08;101571.75;;;7.94;100.00
58243;BME280;50118;53.232;8.252;2023-02-21T09:08:34;101579.00;;;7.92;100.00
58243;BME280;50118;53.232;8.252;2023-02-21T09:11:03;101569.75;;;7.97;100.00
58243;BME280;50118;53.232;8.252;2023-02-21T09:13:29;101571.09;;;8.03;100.00
58243;BME280;50118;53.232;8.252;2023-02-21T09:15:57;101564.19;;;8.13;100.00
58243;BME280;50118;53.232;8.252;2023-02-21T09:18:23;101559.41;;;8.18;100.00
58243;BME280;50118;53.232;8.252;2023-02-21T09:20:48;101564.91;;;8.28;100.00
58243;BME280;50118;53.232;8.252;2023-02-21T09:23:17;101559.19;;;8.21;100.00
58243;BME280;50118;53.232;8.252;2023-02-21T09:25:46;101561.31;;;8.29;100.00
58243;BME280;50118;53.232;8.252;2023-02-21T09:28:12;101562.88;;;8.32;100.00
58243;BME280;50118;53.232;8.252;2023-02-21T09:30:38;101567.00;;;8.36;100.00
58243;BME280;50118;53.232;8.252;2023-02-21T09:33:03;101564.66;;;8.44;100.00
58243;BME280;50118;53.232;8.252;2023-02-21T09:35:28;101562.34;;;8.27;100.00
58243;BME280;50118;53.232;8.252;2023-02-21T09:37:56;101575.09;;;8.34;100.00
58243;BME280;50118;53.232;8.252;2023-02-21T09:40:41;101577.00;;;8.45;100.00
58243;BME280;50118;53.232;8.252;2023-02-21T09:43:13;101579.75;;;8.44;100.00
58243;BME280;50118;53.232;8.252;2023-02-21T09:45:40;101582.50;;;8.55;100.00
58243;BME280;50118;53.232;8.252;2023-02-21T09:48:17;101577.50;;;8.50;100.00
58243;BME280;50118;53.232;8.252;2023-02-21T09:50:55;101573.03;;;8.51;100.00
58243;BME280;50118;53.232;8.252;2023-02-21T09:53:31;101572.19;;;8.50;100.00
58243;BME280;50118;53.232;8.252;2023-02-21T09:56:12;101566.78;;;8.52;100.00
58243;BME280;50118;53.232;8.252;2023-02-21T09:58:40;101576.41;;;8.53;100.00
58243;BME280;50118;53.232;8.252;2023-02-21T10:04:13;101573.53;;;8.69;100.00
58243;BME280;50118;53.232;8.252;2023-02-21T10:06:50;101566.59;;;8.66;100.00
58243;BME280;50118;53.232;8.252;2023-02-21T10:09:30;101577.22;;;8.90;100.00
58243;BME280;50118;53.232;8.252;2023-02-21T10:12:18;101572.88;;;8.89;100.00
58243;BME280;50118;53.232;8.252;2023-02-21T10:21:03;101582.19;;;8.84;100.00
58243;BME280;50118;53.232;8.252;2023-02-21T10:23:37;101580.25;;;8.86;100.00
58243;BME280;50118;53.232;8.252;2023-02-21T10:26:09;101581.09;;;8.86;100.00
58243;BME280;50118;53.232;8.252;2023-02-21T10:28:35;101579.84;;;8.79;100.00
58243;BME280;50118;53.232;8.252;2023-02-21T10:31:08;101590.91;;;8.73;100.00
58243;BME280;50118;53.232;8.252;2023-02-21T10:33:37;101596.19;;;8.86;100.00
58243;BME280;50118;53.232;8.252;2023-02-21T10:36:10;101608.22;;;8.78;100.00
58243;BME280;50118;53.232;8.252;2023-02-21T10:38:37;101609.22;;;8.65;100.00
58243;BME280;50118;53.232;8.252;2023-02-21T10:41:04;101606.91;;;8.60;100.00
58243;BME280;50118;53.232;8.252;2023-02-21T10:43:40;101606.44;;;8.66;100.00
58243;BME280;50118;53.232;8.252;2023-02-21T10:48:41;101612.06;;;8.74;100.00
58243;BME280;50118;53.232;8.252;2023-02-21T10:51:13;101607.81;;;8.72;100.00
58243;BME280;50118;53.232;8.252;2023-02-21T10:53:41;101609.59;;;8.84;100.00
58243;BME280;50118;53.232;8.252;2023-02-21T10:58:34;101615.22;;;8.79;100.00
58243;BME280;50118;53.232;8.252;2023-02-21T11:01:11;101616.97;;;8.68;100.00
58243;BME280;50118;53.232;8.252;2023-02-21T11:03:43;101614.13;;;8.58;100.00
58243;BME280;50118;53.232;8.252;2023-02-21T11:06:21;101605.63;;;8.53;100.00
58243;BME280;50118;53.232;8.252;2023-02-21T11:08:48;101604.25;;;8.60;100.00
58243;BME280;50118;53.232;8.252;2023-02-21T11:11:13;101610.91;;;8.66;100.00
58243;BME280;50118;53.232;8.252;2023-02-21T11:13:38;101608.56;;;8.74;100.00
58243;BME280;50118;53.232;8.252;2023-02-21T11:16:18;101603.03;;;8.77;100.00
58243;BME280;50118;53.232;8.252;2023-02-21T11:18:44;101605.38;;;8.69;100.00
58243;BME280;50118;53.232;8.252;2023-02-21T11:21:13;101609.97;;;8.67;100.00
58243;BME280;50118;53.232;8.252;2023-02-21T11:23:45;101606.63;;;8.76;100.00
58243;BME280;50118;53.232;8.252;2023-02-21T11:26:14;101616.22;;;8.66;100.00
58243;BME280;50118;53.232;8.252;2023-02-21T11:28:41;101612.06;;;8.74;100.00
58243;BME280;50118;53.232;8.252;2023-02-21T11:31:28;101609.63;;;8.71;100.00
58243;BME280;50118;53.232;8.252;2023-02-21T11:34:07;101608.75;;;8.84;100.00
58243;BME280;50118;53.232;8.252;2023-02-21T11:36:41;101602.78;;;8.80;100.00
58243;BME280;50118;53.232;8.252;2023-02-21T11:39:21;101594.09;;;8.78;100.00
58243;BME280;50118;53.232;8.252;2023-02-21T11:41:50;101607.16;;;8.81;100.00
58243;BME280;50118;53.232;8.252;2023-02-21T11:50:09;101605.06;;;8.97;100.00
58243;BME280;50118;53.232;8.252;2023-02-21T11:55:18;101599.84;;;8.96;100.00
58243;BME280;50118;53.232;8.252;2023-02-21T12:06:12;101603.69;;;9.16;100.00
58243;BME280;50118;53.232;8.252;2023-02-21T12:08:49;101597.41;;;9.17;100.00
58243;BME280;50118;53.232;8.252;2023-02-21T12:16:41;101594.06;;;9.26;100.00
58243;BME280;50118;53.232;8.252;2023-02-21T12:22:01;101593.06;;;9.16;100.00
58243;BME280;50118;53.232;8.252;2023-02-21T12:27:20;101590.09;;;9.32;100.00
58243;BME280;50118;53.232;8.252;2023-02-21T12:30:04;101584.66;;;9.33;100.00
58243;BME280;50118;53.232;8.252;2023-02-21T12:41:11;101580.09;;;9.47;100.00
58243;BME280;50118;53.232;8.252;2023-02-21T12:46:34;101576.47;;;9.48;100.00
58243;BME280;50118;53.232;8.252;2023-02-21T12:49:09;101568.66;;;9.69;100.00
58243;BME280;50118;53.232;8.252;2023-02-21T12:51:50;101566.09;;;9.67;100.00
58243;BME280;50118;53.232;8.252;2023-02-21T12:54:22;101567.56;;;9.71;100.00
58243;BME280;50118;53.232;8.252;2023-02-21T12:56:56;101566.97;;;9.90;100.00
58243;BME280;50118;53.232;8.252;2023-02-21T12:59:29;101571.06;;;9.83;100.00
58243;BME280;50118;53.232;8.252;2023-02-21T13:01:58;101560.28;;;9.73;100.00
58243;BME280;50118;53.232;8.252;2023-02-21T13:04:54;101572.78;;;9.84;100.00
58243;BME280;50118;53.232;8.252;2023-02-21T13:10:38;101568.28;;;9.85;100.00
58243;BME280;50118;53.232;8.252;2023-02-21T13:13:24;101565.50;;;9.75;100.00
58243;BME280;50118;53.232;8.252;2023-02-21T13:15:51;101572.88;;;9.71;100.00
58243;BME280;50118;53.232;8.252;2023-02-21T13:18:24;101568.28;;;9.62;100.00
58243;BME280;50118;53.232;8.252;2023-02-21T13:21:21;101562.84;;;9.75;100.00
58243;BME280;50118;53.232;8.252;2023-02-21T13:24:12;101554.22;;;9.60;100.00
58243;BME280;50118;53.232;8.252;2023-02-21T13:29:40;101554.28;;;9.83;100.00
58243;BME280;50118;53.232;8.252;2023-02-21T13:32:10;101550.53;;;9.74;100.00
58243;BME280;50118;53.232;8.252;2023-02-21T13:34:46;101542.06;;;9.91;100.00
58243;BME280;50118;53.232;8.252;2023-02-21T13:37:16;101556.06;;;9.94;100.00
58243;BME280;50118;53.232;8.252;2023-02-21T13:39:53;101540.47;;;10.00;100.00
58243;BME280;50118;53.232;8.252;2023-02-21T13:42:24;101542.88;;;9.92;100.00
58243;BME280;50118;53.232;8.252;2023-02-21T13:53:25;101540.94;;;9.94;100.00
58243;BME280;50118;53.232;8.252;2023-02-21T13:58:39;101538.63;;;9.67;100.00
58243;BME280;50118;53.232;8.252;2023-02-21T14:01:37;101532.97;;;9.83;100.00
58243;BME280;50118;53.232;8.252;2023-02-21T14:07:06;101531.03;;;9.73;100.00
58243;BME280;50118;53.232;8.252;2023-02-21T14:09:34;101530.53;;;9.68;100.00
58243;BME280;50118;53.232;8.252;2023-02-21T14:12:04;101538.41;;;9.81;100.00
58243;BME280;50118;53.232;8.252;2023-02-21T14:14:31;101528.25;;;9.86;100.00
58243;BME280;50118;53.232;8.252;2023-02-21T14:17:11;101526.78;;;9.82;100.00
58243;BME280;50118;53.232;8.252;2023-02-21T14:24:41;101526.94;;;9.69;100.00
58243;BME280;50118;53.232;8.252;2023-02-21T14:29:44;101527.66;;;9.83;100.00
58243;BME280;50118;53.232;8.252;2023-02-21T14:34:49;101528.63;;;9.70;100.00
58243;BME280;50118;53.232;8.252;2023-02-21T14:37:42;101526.19;;;9.56;100.00
58243;BME280;50118;53.232;8.252;2023-02-21T14:45:35;101523.31;;;9.70;100.00
58243;BME280;50118;53.232;8.252;2023-02-21T14:53:36;101521.84;;;9.66;100.00
58243;BME280;50118;53.232;8.252;2023-02-21T15:08:05;101515.44;;;9.69;100.00
58243;BME280;50118;53.232;8.252;2023-02-21T15:13:01;101524.53;;;9.78;100.00
58243;BME280;50118;53.232;8.252;2023-02-21T15:15:42;101517.75;;;9.62;100.00
58243;BME280;50118;53.232;8.252;2023-02-21T15:18:12;101520.75;;;9.58;100.00
58243;BME280;50118;53.232;8.252;2023-02-21T15:23:40;101524.50;;;9.44;100.00
58243;BME280;50118;53.232;8.252;2023-02-21T15:26:26;101521.00;;;9.43;100.00
58243;BME280;50118;53.232;8.252;2023-02-21T15:29:09;101520.72;;;9.46;100.00
58243;BME280;50118;53.232;8.252;2023-02-21T15:31:39;101519.66;;;9.49;100.00
58243;BME280;50118;53.232;8.252;2023-02-21T15:34:11;101516.41;;;9.45;100.00
58243;BME280;50118;53.232;8.252;2023-02-21T15:36:45;101516.13;;;9.37;100.00
58243;BME280;50118;53.232;8.252;2023-02-21T15:39:25;101512.38;;;9.40;100.00